sensor_id;sensor_type;location;lat;lon;timestamp;temperature;humidity
72202;SHT30;60105;54.956;73.412;2023-09-07T00:01:28;12.17;87.22
72202;SHT30;60105;54.956;73.412;2023-09-07T00:04:29;12.17;87.27
72202;SHT30;60105;54.956;73.412;2023-09-07T00:07:30;12.15;87.16
72202;SHT30;60105;54.956;73.412;2023-09-07T00:10:34;12.14;86.94
72202;SHT30;60105;54.956;73.412;2023-09-07T00:13:47;12.14;86.68
72202;SHT30;60105;54.956;73.412;2023-09-07T00:16:48;12.06;86.72
72202;SHT30;60105;54.956;73.412;2023-09-07T00:19:49;12.06;87.05
72202;SHT30;60105;54.956;73.412;2023-09-07T00:22:52;12.05;87.39
72202;SHT30;60105;54.956;73.412;2023-09-07T00:25:53;12.02;87.14
72202;SHT30;60105;54.956;73.412;2023-09-07T00:29:18;12.04;86.82
72202;SHT30;60105;54.956;73.412;2023-09-07T00:32:19;11.99;86.83
72202;SHT30;60105;54.956;73.412;2023-09-07T00:35:21;11.99;87.11
72202;SHT30;60105;54.956;73.412;2023-09-07T00:38:22;12.01;86.93
72202;SHT30;60105;54.956;73.412;2023-09-07T00:41:23;12.02;86.52
72202;SHT30;60105;54.956;73.412;2023-09-07T00:44:25;12.01;86.75
72202;SHT30;60105;54.956;73.412;2023-09-07T00:47:26;12.02;86.54
72202;SHT30;60105;54.956;73.412;2023-09-07T00:50:28;11.99;86.15
72202;SHT30;60105;54.956;73.412;2023-09-07T00:53:30;12.02;85.75
72202;SHT30;60105;54.956;73.412;2023-09-07T00:56:31;11.98;85.92
72202;SHT30;60105;54.956;73.412;2023-09-07T00:59:34;12.01;85.67
72202;SHT30;60105;54.956;73.412;2023-09-07T01:02:36;11.98;85.81
72202;SHT30;60105;54.956;73.412;2023-09-07T01:05:50;11.91;85.76
72202;SHT30;60105;54.956;73.412;2023-09-07T01:09:24;11.85;85.49
72202;SHT30;60105;54.956;73.412;2023-09-07T01:12:26;11.77;85.59
72202;SHT30;60105;54.956;73.412;2023-09-07T01:15:28;11.77;85.61
72202;SHT30;60105;54.956;73.412;2023-09-07T01:18:30;11.74;85.20
72202;SHT30;60105;54.956;73.412;2023-09-07T01:21:36;11.73;84.97
72202;SHT30;60105;54.956;73.412;2023-09-07T01:24:38;11.74;84.95
72202;SHT30;60105;54.956;73.412;2023-09-07T01:27:41;11.73;84.67
72202;SHT30;60105;54.956;73.412;2023-09-07T01:30:42;11.78;84.56
72202;SHT30;60105;54.956;73.412;2023-09-07T01:34:18;11.74;84.73
72202;SHT30;60105;54.956;73.412;2023-09-07T01:37:19;11.82;84.51
72202;SHT30;60105;54.956;73.412;2023-09-07T01:40:21;11.81;84.19
72202;SHT30;60105;54.956;73.412;2023-09-07T01:43:22;11.77;84.49
72202;SHT30;60105;54.956;73.412;2023-09-07T01:46:24;11.80;84.04
72202;SHT30;60105;54.956;73.412;2023-09-07T01:49:25;11.78;83.90
72202;SHT30;60105;54.956;73.412;2023-09-07T01:52:26;11.73;83.72
72202;SHT30;60105;54.956;73.412;2023-09-07T01:55:28;11.80;83.54
72202;SHT30;60105;54.956;73.412;2023-09-07T01:58:30;11.88;83.75
72202;SHT30;60105;54.956;73.412;2023-09-07T02:01:32;11.95;82.77
72202;SHT30;60105;54.956;73.412;2023-09-07T02:04:37;11.98;83.32
72202;SHT30;60105;54.956;73.412;2023-09-07T02:07:38;12.05;82.38
72202;SHT30;60105;54.956;73.412;2023-09-07T02:10:40;12.08;82.49
72202;SHT30;60105;54.956;73.412;2023-09-07T02:13:47;12.11;81.78
72202;SHT30;60105;54.956;73.412;2023-09-07T02:16:49;12.14;81.62
72202;SHT30;60105;54.956;73.412;2023-09-07T02:19:50;12.21;81.25
72202;SHT30;60105;54.956;73.412;2023-09-07T02:22:51;12.26;80.94
72202;SHT30;60105;54.956;73.412;2023-09-07T02:25:53;12.33;81.00
72202;SHT30;60105;54.956;73.412;2023-09-07T02:29:18;12.42;80.74
72202;SHT30;60105;54.956;73.412;2023-09-07T02:32:22;12.49;80.75
72202;SHT30;60105;54.956;73.412;2023-09-07T02:35:23;12.55;80.13
72202;SHT30;60105;54.956;73.412;2023-09-07T02:38:26;12.64;81.25
72202;SHT30;60105;54.956;73.412;2023-09-07T02:41:27;12.75;79.42
72202;SHT30;60105;54.956;73.412;2023-09-07T02:44:30;12.83;80.20
72202;SHT30;60105;54.956;73.412;2023-09-07T02:47:31;12.96;79.11
72202;SHT30;60105;54.956;73.412;2023-09-07T02:50:33;12.88;78.15
72202;SHT30;60105;54.956;73.412;2023-09-07T02:54:18;12.86;77.76
72202;SHT30;60105;54.956;73.412;2023-09-07T02:57:20;12.96;77.97
72202;SHT30;60105;54.956;73.412;2023-09-07T03:00:24;13.08;77.85
72202;SHT30;60105;54.956;73.412;2023-09-07T03:03:25;12.93;77.25
72202;SHT30;60105;54.956;73.412;2023-09-07T03:06:27;12.87;77.59
72202;SHT30;60105;54.956;73.412;2023-09-07T03:09:29;12.88;77.16
72202;SHT30;60105;54.956;73.412;2023-09-07T03:12:30;12.87;77.59
72202;SHT30;60105;54.956;73.412;2023-09-07T03:15:32;12.97;76.88
72202;SHT30;60105;54.956;73.412;2023-09-07T03:18:34;13.07;76.67
72202;SHT30;60105;54.956;73.412;2023-09-07T03:21:35;13.12;76.72
72202;SHT30;60105;54.956;73.412;2023-09-07T03:24:37;13.22;76.48
72202;SHT30;60105;54.956;73.412;2023-09-07T03:27:38;13.29;75.98
72202;SHT30;60105;54.956;73.412;2023-09-07T03:30:42;13.41;75.96
72202;SHT30;60105;54.956;73.412;2023-09-07T03:34:18;13.42;75.40
72202;SHT30;60105;54.956;73.412;2023-09-07T03:37:20;13.45;75.61
72202;SHT30;60105;54.956;73.412;2023-09-07T03:40:22;13.48;75.15
72202;SHT30;60105;54.956;73.412;2023-09-07T03:43:24;13.44;75.24
72202;SHT30;60105;54.956;73.412;2023-09-07T03:46:28;13.41;74.98
72202;SHT30;60105;54.956;73.412;2023-09-07T03:49:30;13.42;75.84
72202;SHT30;60105;54.956;73.412;2023-09-07T03:52:31;13.36;75.86
72202;SHT30;60105;54.956;73.412;2023-09-07T03:55:42;13.41;76.10
72202;SHT30;60105;54.956;73.412;2023-09-07T03:59:18;13.51;76.23
72202;SHT30;60105;54.956;73.412;2023-09-07T04:02:19;13.61;76.40
72202;SHT30;60105;54.956;73.412;2023-09-07T04:05:22;13.75;75.42
72202;SHT30;60105;54.956;73.412;2023-09-07T04:08:24;13.80;74.82
72202;SHT30;60105;54.956;73.412;2023-09-07T04:11:25;13.96;74.85
72202;SHT30;60105;54.956;73.412;2023-09-07T04:14:27;14.20;74.37
72202;SHT30;60105;54.956;73.412;2023-09-07T04:17:29;14.31;73.32
72202;SHT30;60105;54.956;73.412;2023-09-07T04:20:31;14.34;73.44
72202;SHT30;60105;54.956;73.412;2023-09-07T04:23:32;14.41;73.48
72202;SHT30;60105;54.956;73.412;2023-09-07T04:26:37;14.58;73.93
72202;SHT30;60105;54.956;73.412;2023-09-07T04:29:38;14.60;73.44
72202;SHT30;60105;54.956;73.412;2023-09-07T04:32:40;14.51;73.60
72202;SHT30;60105;54.956;73.412;2023-09-07T04:35:42;14.49;74.07
72202;SHT30;60105;54.956;73.412;2023-09-07T04:39:19;14.62;73.36
72202;SHT30;60105;54.956;73.412;2023-09-07T04:42:20;14.78;74.07
72202;SHT30;60105;54.956;73.412;2023-09-07T04:45:22;14.78;72.86
72202;SHT30;60105;54.956;73.412;2023-09-07T04:48:23;14.82;73.39
72202;SHT30;60105;54.956;73.412;2023-09-07T04:51:27;14.86;73.51
72202;SHT30;60105;54.956;73.412;2023-09-07T04:54:30;14.98;73.01
72202;SHT30;60105;54.956;73.412;2023-09-07T04:57:32;14.99;72.54
72202;SHT30;60105;54.956;73.412;2023-09-07T05:00:33;14.95;72.51
72202;SHT30;60105;54.956;73.412;2023-09-07T05:04:18;15.00;72.96
72202;SHT30;60105;54.956;73.412;2023-09-07T05:07:19;15.14;72.75
72202;SHT30;60105;54.956;73.412;2023-09-07T05:10:21;15.22;72.78
72202;SHT30;60105;54.956;73.412;2023-09-07T05:13:23;15.20;71.91
72202;SHT30;60105;54.956;73.412;2023-09-07T05:16:25;15.24;72.42
72202;SHT30;60105;54.956;73.412;2023-09-07T05:19:33;15.34;71.52
72202;SHT30;60105;54.956;73.412;2023-09-07T05:22:39;15.37;70.87
72202;SHT30;60105;54.956;73.412;2023-09-07T05:25:46;15.55;70.10
72202;SHT30;60105;54.956;73.412;2023-09-07T05:29:18;15.47;70.48
72202;SHT30;60105;54.956;73.412;2023-09-07T05:32:21;15.58;71.40
72202;SHT30;60105;54.956;73.412;2023-09-07T05:35:23;15.74;70.10
72202;SHT30;60105;54.956;73.412;2023-09-07T05:38:28;15.85;67.98
72202;SHT30;60105;54.956;73.412;2023-09-07T05:41:30;16.04;67.27
72202;SHT30;60105;54.956;73.412;2023-09-07T05:44:32;16.04;66.93
72202;SHT30;60105;54.956;73.412;2023-09-07T05:47:33;16.04;66.61
72202;SHT30;60105;54.956;73.412;2023-09-07T05:50:36;16.15;66.25
72202;SHT30;60105;54.956;73.412;2023-09-07T05:54:18;16.04;66.22
72202;SHT30;60105;54.956;73.412;2023-09-07T05:57:20;15.95;66.89
72202;SHT30;60105;54.956;73.412;2023-09-07T06:00:21;16.08;66.99
72202;SHT30;60105;54.956;73.412;2023-09-07T06:03:24;16.01;65.75
72202;SHT30;60105;54.956;73.412;2023-09-07T06:06:36;16.11;66.04
72202;SHT30;60105;54.956;73.412;2023-09-07T06:09:49;16.13;65.68
72202;SHT30;60105;54.956;73.412;2023-09-07T06:13:05;16.21;65.52
72202;SHT30;60105;54.956;73.412;2023-09-07T06:16:26;16.43;64.81
72202;SHT30;60105;54.956;73.412;2023-09-07T06:19:40;16.48;64.91
72202;SHT30;60105;54.956;73.412;2023-09-07T06:22:58;16.74;63.54
72202;SHT30;60105;54.956;73.412;2023-09-07T06:25:59;16.97;63.00
72202;SHT30;60105;54.956;73.412;2023-09-07T06:29:18;17.11;61.13
72202;SHT30;60105;54.956;73.412;2023-09-07T06:32:20;17.27;61.98
72202;SHT30;60105;54.956;73.412;2023-09-07T06:35:21;17.39;62.28
72202;SHT30;60105;54.956;73.412;2023-09-07T06:38:23;17.32;60.42
72202;SHT30;60105;54.956;73.412;2023-09-07T06:41:25;17.15;61.08
72202;SHT30;60105;54.956;73.412;2023-09-07T06:44:27;17.01;60.27
72202;SHT30;60105;54.956;73.412;2023-09-07T06:47:29;17.00;61.52
72202;SHT30;60105;54.956;73.412;2023-09-07T06:50:30;16.94;60.47
72202;SHT30;60105;54.956;73.412;2023-09-07T06:53:32;16.94;60.34
72202;SHT30;60105;54.956;73.412;2023-09-07T06:56:34;16.97;60.16
72202;SHT30;60105;54.956;73.412;2023-09-07T06:59:35;17.00;60.37
72202;SHT30;60105;54.956;73.412;2023-09-07T07:02:37;17.01;61.98
72202;SHT30;60105;54.956;73.412;2023-09-07T07:05:39;17.04;62.07
72202;SHT30;60105;54.956;73.412;2023-09-07T07:09:18;17.14;59.96
72202;SHT30;60105;54.956;73.412;2023-09-07T07:12:20;17.04;60.06
72202;SHT30;60105;54.956;73.412;2023-09-07T07:15:38;17.12;60.35
72202;SHT30;60105;54.956;73.412;2023-09-07T07:19:18;17.17;59.47
72202;SHT30;60105;54.956;73.412;2023-09-07T07:22:28;17.17;58.66
72202;SHT30;60105;54.956;73.412;2023-09-07T07:25:30;17.03;57.69
72202;SHT30;60105;54.956;73.412;2023-09-07T07:29:18;17.03;57.87
72202;SHT30;60105;54.956;73.412;2023-09-07T07:32:20;17.08;58.59
72202;SHT30;60105;54.956;73.412;2023-09-07T07:35:23;17.14;57.86
72202;SHT30;60105;54.956;73.412;2023-09-07T07:38:25;17.11;57.27
72202;SHT30;60105;54.956;73.412;2023-09-07T07:41:26;17.24;57.39
72202;SHT30;60105;54.956;73.412;2023-09-07T07:44:28;17.24;56.08
72202;SHT30;60105;54.956;73.412;2023-09-07T07:47:36;17.27;56.41
72202;SHT30;60105;54.956;73.412;2023-09-07T07:50:42;17.29;55.65
72202;SHT30;60105;54.956;73.412;2023-09-07T07:54:18;17.35;54.81
72202;SHT30;60105;54.956;73.412;2023-09-07T07:57:21;17.43;54.97
72202;SHT30;60105;54.956;73.412;2023-09-07T08:00:22;17.52;55.25
72202;SHT30;60105;54.956;73.412;2023-09-07T08:03:28;17.45;55.18
72202;SHT30;60105;54.956;73.412;2023-09-07T08:06:29;17.56;54.76
72202;SHT30;60105;54.956;73.412;2023-09-07T08:09:31;17.61;55.38
72202;SHT30;60105;54.956;73.412;2023-09-07T08:12:33;17.58;53.32
72202;SHT30;60105;54.956;73.412;2023-09-07T08:15:35;17.59;52.87
72202;SHT30;60105;54.956;73.412;2023-09-07T08:19:18;17.42;53.44
72202;SHT30;60105;54.956;73.412;2023-09-07T08:22:20;17.42;54.83
72202;SHT30;60105;54.956;73.412;2023-09-07T08:25:21;17.42;53.84
72202;SHT30;60105;54.956;73.412;2023-09-07T08:28:25;17.35;52.50
72202;SHT30;60105;54.956;73.412;2023-09-07T08:31:28;17.32;50.90
72202;SHT30;60105;54.956;73.412;2023-09-07T08:34:29;17.22;49.57
72202;SHT30;60105;54.956;73.412;2023-09-07T08:37:32;17.32;50.33
72202;SHT30;60105;54.956;73.412;2023-09-07T08:40:39;17.46;50.26
72202;SHT30;60105;54.956;73.412;2023-09-07T08:43:47;17.49;49.97
72202;SHT30;60105;54.956;73.412;2023-09-07T08:46:50;17.53;50.73
72202;SHT30;60105;54.956;73.412;2023-09-07T08:50:04;17.62;51.64
72202;SHT30;60105;54.956;73.412;2023-09-07T08:53:18;17.55;51.53
72202;SHT30;60105;54.956;73.412;2023-09-07T08:56:21;17.59;51.95
72202;SHT30;60105;54.956;73.412;2023-09-07T08:59:24;17.62;53.41
72202;SHT30;60105;54.956;73.412;2023-09-07T09:02:25;17.68;52.05
72202;SHT30;60105;54.956;73.412;2023-09-07T09:05:28;17.68;51.55
72202;SHT30;60105;54.956;73.412;2023-09-07T09:09:02;17.52;52.58
72202;SHT30;60105;54.956;73.412;2023-09-07T09:12:13;17.46;53.04
72202;SHT30;60105;54.956;73.412;2023-09-07T09:15:15;17.52;51.84
72202;SHT30;60105;54.956;73.412;2023-09-07T09:18:19;17.58;52.05
72202;SHT30;60105;54.956;73.412;2023-09-07T09:21:40;17.59;52.41
72202;SHT30;60105;54.956;73.412;2023-09-07T09:24:41;17.53;52.58
72202;SHT30;60105;54.956;73.412;2023-09-07T09:27:42;17.50;52.22
72202;SHT30;60105;54.956;73.412;2023-09-07T09:30:44;17.49;52.77
72202;SHT30;60105;54.956;73.412;2023-09-07T09:34:19;17.66;51.88
72202;SHT30;60105;54.956;73.412;2023-09-07T09:37:21;17.76;51.65
72202;SHT30;60105;54.956;73.412;2023-09-07T09:40:22;17.93;51.18
72202;SHT30;60105;54.956;73.412;2023-09-07T09:43:26;18.08;50.74
72202;SHT30;60105;54.956;73.412;2023-09-07T09:46:28;18.27;50.79
72202;SHT30;60105;54.956;73.412;2023-09-07T09:49:37;18.31;50.96
72202;SHT30;60105;54.956;73.412;2023-09-07T09:52:40;18.44;50.92
72202;SHT30;60105;54.956;73.412;2023-09-07T09:55:45;18.35;50.13
72202;SHT30;60105;54.956;73.412;2023-09-07T09:59:18;18.34;48.68
72202;SHT30;60105;54.956;73.412;2023-09-07T10:02:21;18.35;48.87
72202;SHT30;60105;54.956;73.412;2023-09-07T10:05:25;18.24;49.44
72202;SHT30;60105;54.956;73.412;2023-09-07T10:08:29;18.21;49.02
72202;SHT30;60105;54.956;73.412;2023-09-07T10:11:37;18.41;49.20
72202;SHT30;60105;54.956;73.412;2023-09-07T10:14:40;18.37;48.55
72202;SHT30;60105;54.956;73.412;2023-09-07T10:17:42;18.34;48.13
72202;SHT30;60105;54.956;73.412;2023-09-07T10:21:09;18.43;48.03
72202;SHT30;60105;54.956;73.412;2023-09-07T10:27:36;18.24;49.10
72202;SHT30;60105;54.956;73.412;2023-09-07T10:30:38;18.10;49.23
72202;SHT30;60105;54.956;73.412;2023-09-07T10:34:18;18.21;49.22
72202;SHT30;60105;54.956;73.412;2023-09-07T10:37:19;18.28;48.00
72202;SHT30;60105;54.956;73.412;2023-09-07T10:40:22;18.14;48.70
72202;SHT30;60105;54.956;73.412;2023-09-07T10:43:28;17.96;47.83
72202;SHT30;60105;54.956;73.412;2023-09-07T10:46:29;18.13;47.64
72202;SHT30;60105;54.956;73.412;2023-09-07T10:49:31;18.10;48.59
72202;SHT30;60105;54.956;73.412;2023-09-07T10:52:33;17.97;49.90
72202;SHT30;60105;54.956;73.412;2023-09-07T10:55:57;18.17;48.83
72202;SHT30;60105;54.956;73.412;2023-09-07T10:59:18;18.35;48.98
72202;SHT30;60105;54.956;73.412;2023-09-07T11:02:23;18.35;48.49
72202;SHT30;60105;54.956;73.412;2023-09-07T11:05:25;18.21;48.48
72202;SHT30;60105;54.956;73.412;2023-09-07T11:09:19;18.06;47.95
72202;SHT30;60105;54.956;73.412;2023-09-07T11:12:21;17.97;48.19
72202;SHT30;60105;54.956;73.412;2023-09-07T11:15:22;17.93;48.44
72202;SHT30;60105;54.956;73.412;2023-09-07T11:18:25;17.91;48.29
72202;SHT30;60105;54.956;73.412;2023-09-07T11:21:40;17.98;48.06
72202;SHT30;60105;54.956;73.412;2023-09-07T11:25:05;18.03;48.70
72202;SHT30;60105;54.956;73.412;2023-09-07T11:28:08;18.14;47.76
72202;SHT30;60105;54.956;73.412;2023-09-07T11:31:10;18.16;47.53
72202;SHT30;60105;54.956;73.412;2023-09-07T11:34:18;18.30;47.22
72202;SHT30;60105;54.956;73.412;2023-09-07T11:37:24;18.56;46.09
72202;SHT30;60105;54.956;73.412;2023-09-07T11:40:27;18.62;47.07
72202;SHT30;60105;54.956;73.412;2023-09-07T11:43:28;18.81;45.94
72202;SHT30;60105;54.956;73.412;2023-09-07T11:46:30;18.86;46.89
72202;SHT30;60105;54.956;73.412;2023-09-07T11:49:32;18.69;46.24
72202;SHT30;60105;54.956;73.412;2023-09-07T11:52:33;18.44;46.39
72202;SHT30;60105;54.956;73.412;2023-09-07T11:55:35;18.23;47.50
72202;SHT30;60105;54.956;73.412;2023-09-07T11:59:18;18.06;48.68
72202;SHT30;60105;54.956;73.412;2023-09-07T12:02:20;18.00;50.04
72202;SHT30;60105;54.956;73.412;2023-09-07T12:05:24;17.89;50.15
72202;SHT30;60105;54.956;73.412;2023-09-07T12:08:26;17.82;49.24
72202;SHT30;60105;54.956;73.412;2023-09-07T12:11:27;17.86;47.84
72202;SHT30;60105;54.956;73.412;2023-09-07T12:14:29;17.86;47.29
72202;SHT30;60105;54.956;73.412;2023-09-07T12:17:37;17.91;47.89
72202;SHT30;60105;54.956;73.412;2023-09-07T12:20:56;17.90;48.91
72202;SHT30;60105;54.956;73.412;2023-09-07T12:24:18;17.89;49.50
72202;SHT30;60105;54.956;73.412;2023-09-07T12:27:19;17.86;50.19
72202;SHT30;60105;54.956;73.412;2023-09-07T12:30:22;17.94;50.08
72202;SHT30;60105;54.956;73.412;2023-09-07T12:33:25;17.98;50.85
72202;SHT30;60105;54.956;73.412;2023-09-07T12:36:26;17.89;50.93
72202;SHT30;60105;54.956;73.412;2023-09-07T12:39:32;17.83;51.43
72202;SHT30;60105;54.956;73.412;2023-09-07T12:42:33;17.69;52.00
72202;SHT30;60105;54.956;73.412;2023-09-07T12:45:34;17.53;52.63
72202;SHT30;60105;54.956;73.412;2023-09-07T12:49:18;17.43;53.02
72202;SHT30;60105;54.956;73.412;2023-09-07T12:52:19;17.31;52.79
72202;SHT30;60105;54.956;73.412;2023-09-07T12:55:22;17.19;52.92
72202;SHT30;60105;54.956;73.412;2023-09-07T12:58:24;17.11;53.27
72202;SHT30;60105;54.956;73.412;2023-09-07T13:01:26;17.06;53.16
72202;SHT30;60105;54.956;73.412;2023-09-07T13:04:28;16.97;53.33
72202;SHT30;60105;54.956;73.412;2023-09-07T13:07:31;16.88;53.42
72202;SHT30;60105;54.956;73.412;2023-09-07T13:10:36;16.83;53.66
72202;SHT30;60105;54.956;73.412;2023-09-07T13:13:46;16.71;54.15
72202;SHT30;60105;54.956;73.412;2023-09-07T13:16:48;16.64;54.60
72202;SHT30;60105;54.956;73.412;2023-09-07T13:19:51;16.57;54.96
72202;SHT30;60105;54.956;73.412;2023-09-07T13:22:52;16.48;54.89
72202;SHT30;60105;54.956;73.412;2023-09-07T13:25:57;16.40;55.56
72202;SHT30;60105;54.956;73.412;2023-09-07T13:29:18;16.30;55.81
72202;SHT30;60105;54.956;73.412;2023-09-07T13:32:20;16.22;56.19
72202;SHT30;60105;54.956;73.412;2023-09-07T13:35:30;16.12;56.77
72202;SHT30;60105;54.956;73.412;2023-09-07T13:39:18;16.00;56.78
72202;SHT30;60105;54.956;73.412;2023-09-07T13:42:19;15.95;57.30
72202;SHT30;60105;54.956;73.412;2023-09-07T13:45:26;15.85;57.67
72202;SHT30;60105;54.956;73.412;2023-09-07T13:48:30;15.72;58.26
72202;SHT30;60105;54.956;73.412;2023-09-07T13:51:39;15.67;58.62
72202;SHT30;60105;54.956;73.412;2023-09-07T13:54:41;15.58;59.06
72202;SHT30;60105;54.956;73.412;2023-09-07T13:58:01;15.50;59.64
72202;SHT30;60105;54.956;73.412;2023-09-07T14:01:07;15.41;60.09
72202;SHT30;60105;54.956;73.412;2023-09-07T14:04:21;15.33;60.40
72202;SHT30;60105;54.956;73.412;2023-09-07T14:07:34;15.26;60.35
72202;SHT30;60105;54.956;73.412;2023-09-07T14:10:36;15.06;65.59
72202;SHT30;60105;54.956;73.412;2023-09-07T14:13:50;14.89;66.31
72202;SHT30;60105;54.956;73.412;2023-09-07T14:16:55;14.81;67.88
72202;SHT30;60105;54.956;73.412;2023-09-07T14:20:14;14.71;68.56
72202;SHT30;60105;54.956;73.412;2023-09-07T14:24:18;14.57;68.42
72202;SHT30;60105;54.956;73.412;2023-09-07T14:27:19;14.48;67.88
72202;SHT30;60105;54.956;73.412;2023-09-07T14:30:22;14.51;67.82
72202;SHT30;60105;54.956;73.412;2023-09-07T14:33:25;14.45;69.15
72202;SHT30;60105;54.956;73.412;2023-09-07T14:36:27;14.38;69.02
72202;SHT30;60105;54.956;73.412;2023-09-07T14:39:28;14.30;69.80
72202;SHT30;60105;54.956;73.412;2023-09-07T14:42:30;14.31;68.97
72202;SHT30;60105;54.956;73.412;2023-09-07T14:45:31;14.27;71.06
72202;SHT30;60105;54.956;73.412;2023-09-07T14:48:33;14.23;69.92
72202;SHT30;60105;54.956;73.412;2023-09-07T14:51:35;14.18;69.61
72202;SHT30;60105;54.956;73.412;2023-09-07T14:54:36;14.17;71.43
72202;SHT30;60105;54.956;73.412;2023-09-07T14:57:38;14.14;71.50
72202;SHT30;60105;54.956;73.412;2023-09-07T15:00:39;14.09;72.10
72202;SHT30;60105;54.956;73.412;2023-09-07T15:04:18;14.04;71.90
72202;SHT30;60105;54.956;73.412;2023-09-07T15:07:19;13.99;72.14
72202;SHT30;60105;54.956;73.412;2023-09-07T15:10:21;13.95;73.29
72202;SHT30;60105;54.956;73.412;2023-09-07T15:13:22;13.86;73.69
72202;SHT30;60105;54.956;73.412;2023-09-07T15:16:24;13.83;73.16
72202;SHT30;60105;54.956;73.412;2023-09-07T15:19:25;13.76;74.43
72202;SHT30;60105;54.956;73.412;2023-09-07T15:22:26;13.70;73.93
72202;SHT30;60105;54.956;73.412;2023-09-07T15:25:28;13.70;72.46
72202;SHT30;60105;54.956;73.412;2023-09-07T15:28:29;13.66;73.78
72202;SHT30;60105;54.956;73.412;2023-09-07T15:31:31;13.62;74.04
72202;SHT30;60105;54.956;73.412;2023-09-07T15:34:32;13.61;74.62
72202;SHT30;60105;54.956;73.412;2023-09-07T15:37:35;13.55;74.25
72202;SHT30;60105;54.956;73.412;2023-09-07T15:40:36;13.56;74.27
72202;SHT30;60105;54.956;73.412;2023-09-07T15:43:59;13.48;74.81
72202;SHT30;60105;54.956;73.412;2023-09-07T15:47:01;13.48;75.57
72202;SHT30;60105;54.956;73.412;2023-09-07T15:50:03;13.51;74.43
72202;SHT30;60105;54.956;73.412;2023-09-07T15:53:07;13.48;75.79
72202;SHT30;60105;54.956;73.412;2023-09-07T15:56:09;13.48;76.97
72202;SHT30;60105;54.956;73.412;2023-09-07T15:59:18;13.49;76.16
72202;SHT30;60105;54.956;73.412;2023-09-07T16:02:20;13.48;75.27
72202;SHT30;60105;54.956;73.412;2023-09-07T16:05:21;13.49;75.37
72202;SHT30;60105;54.956;73.412;2023-09-07T16:08:27;13.58;74.48
72202;SHT30;60105;54.956;73.412;2023-09-07T16:11:29;13.56;74.57
72202;SHT30;60105;54.956;73.412;2023-09-07T16:14:30;13.55;76.13
72202;SHT30;60105;54.956;73.412;2023-09-07T16:17:32;13.44;76.17
72202;SHT30;60105;54.956;73.412;2023-09-07T16:20:34;13.41;77.22
72202;SHT30;60105;54.956;73.412;2023-09-07T16:24:18;13.28;76.99
72202;SHT30;60105;54.956;73.412;2023-09-07T16:27:19;13.21;76.60
72202;SHT30;60105;54.956;73.412;2023-09-07T16:30:21;13.15;76.68
72202;SHT30;60105;54.956;73.412;2023-09-07T16:33:22;13.10;77.24
72202;SHT30;60105;54.956;73.412;2023-09-07T16:36:23;13.04;77.73
72202;SHT30;60105;54.956;73.412;2023-09-07T16:39:25;12.93;77.96
72202;SHT30;60105;54.956;73.412;2023-09-07T16:42:26;12.87;79.20
72202;SHT30;60105;54.956;73.412;2023-09-07T16:45:28;12.79;78.30
72202;SHT30;60105;54.956;73.412;2023-09-07T16:48:29;12.73;79.05
72202;SHT30;60105;54.956;73.412;2023-09-07T16:51:31;12.63;79.21
72202;SHT30;60105;54.956;73.412;2023-09-07T16:54:32;12.64;80.99
72202;SHT30;60105;54.956;73.412;2023-09-07T16:57:34;12.55;79.71
72202;SHT30;60105;54.956;73.412;2023-09-07T17:00:35;12.48;80.02
72202;SHT30;60105;54.956;73.412;2023-09-07T17:04:25;12.43;81.01
72202;SHT30;60105;54.956;73.412;2023-09-07T17:07:35;12.38;80.37
72202;SHT30;60105;54.956;73.412;2023-09-07T17:10:36;12.38;80.19
72202;SHT30;60105;54.956;73.412;2023-09-07T17:13:46;12.45;80.53
72202;SHT30;60105;54.956;73.412;2023-09-07T17:16:48;12.36;80.44
72202;SHT30;60105;54.956;73.412;2023-09-07T17:19:50;12.40;78.34
72202;SHT30;60105;54.956;73.412;2023-09-07T17:22:52;12.42;77.72
72202;SHT30;60105;54.956;73.412;2023-09-07T17:25:54;12.42;77.16
72202;SHT30;60105;54.956;73.412;2023-09-07T17:29:18;12.33;78.91
72202;SHT30;60105;54.956;73.412;2023-09-07T17:32:19;12.29;79.15
72202;SHT30;60105;54.956;73.412;2023-09-07T17:35:21;12.22;79.47
72202;SHT30;60105;54.956;73.412;2023-09-07T17:38:23;12.09;79.67
72202;SHT30;60105;54.956;73.412;2023-09-07T17:41:29;12.05;80.21
72202;SHT30;60105;54.956;73.412;2023-09-07T17:44:31;12.04;80.31
72202;SHT30;60105;54.956;73.412;2023-09-07T17:47:33;12.01;80.79
72202;SHT30;60105;54.956;73.412;2023-09-07T17:50:34;11.98;80.99
72202;SHT30;60105;54.956;73.412;2023-09-07T17:54:18;11.92;80.88
72202;SHT30;60105;54.956;73.412;2023-09-07T17:57:19;11.84;81.05
72202;SHT30;60105;54.956;73.412;2023-09-07T18:00:21;11.81;81.14
72202;SHT30;60105;54.956;73.412;2023-09-07T18:03:23;11.75;82.59
72202;SHT30;60105;54.956;73.412;2023-09-07T18:06:30;11.68;83.37
72202;SHT30;60105;54.956;73.412;2023-09-07T18:09:54;11.57;81.82
72202;SHT30;60105;54.956;73.412;2023-09-07T18:13:15;11.53;82.57
72202;SHT30;60105;54.956;73.412;2023-09-07T18:16:33;11.44;82.13
72202;SHT30;60105;54.956;73.412;2023-09-07T18:19:49;11.43;82.43
72202;SHT30;60105;54.956;73.412;2023-09-07T18:22:59;11.39;83.38
72202;SHT30;60105;54.956;73.412;2023-09-07T18:26:03;11.33;83.36
72202;SHT30;60105;54.956;73.412;2023-09-07T18:29:18;11.31;83.16
72202;SHT30;60105;54.956;73.412;2023-09-07T18:32:19;11.27;84.38
72202;SHT30;60105;54.956;73.412;2023-09-07T18:35:20;11.22;83.31
72202;SHT30;60105;54.956;73.412;2023-09-07T18:38:22;11.19;83.58
72202;SHT30;60105;54.956;73.412;2023-09-07T18:41:23;11.16;83.90
72202;SHT30;60105;54.956;73.412;2023-09-07T18:44:25;11.16;84.69
72202;SHT30;60105;54.956;73.412;2023-09-07T18:47:28;11.09;84.07
72202;SHT30;60105;54.956;73.412;2023-09-07T18:50:31;11.10;85.26
72202;SHT30;60105;54.956;73.412;2023-09-07T18:53:32;11.10;84.73
72202;SHT30;60105;54.956;73.412;2023-09-07T18:56:34;11.08;84.35
72202;SHT30;60105;54.956;73.412;2023-09-07T18:59:35;11.06;84.24
72202;SHT30;60105;54.956;73.412;2023-09-07T19:02:37;10.99;85.11
72202;SHT30;60105;54.956;73.412;2023-09-07T19:05:38;11.01;85.04
72202;SHT30;60105;54.956;73.412;2023-09-07T19:09:18;10.93;84.09
72202;SHT30;60105;54.956;73.412;2023-09-07T19:12:20;10.91;84.04
72202;SHT30;60105;54.956;73.412;2023-09-07T19:15:21;10.89;84.14
72202;SHT30;60105;54.956;73.412;2023-09-07T19:18:22;10.86;84.40
72202;SHT30;60105;54.956;73.412;2023-09-07T19:21:24;10.83;84.50
72202;SHT30;60105;54.956;73.412;2023-09-07T19:24:27;10.82;85.28